createdAt,value
2022-10-17T00:01:04.287Z,12.45
2022-10-17T00:03:33.140Z,10.60
2022-10-17T00:06:05.734Z,10.25
2022-10-17T00:08:32.967Z,10.80
2022-10-17T00:11:07.523Z,10.73
2022-10-17T00:26:06.102Z,7.05
2022-10-17T00:28:33.484Z,11.15
2022-10-17T00:31:04.229Z,13.55
2022-10-17T00:33:33.011Z,7.00
2022-10-17T00:36:19.999Z,9.55
2022-10-17T00:38:51.998Z,22.85
2022-10-17T00:41:23.691Z,9.68
2022-10-17T00:44:01.598Z,7.47
2022-10-17T00:46:38.649Z,8.27
2022-10-17T00:49:12.787Z,11.38
2022-10-17T00:52:39.727Z,11.48
2022-10-17T00:55:53.999Z,11.80
2022-10-17T00:58:21.868Z,10.18
2022-10-17T01:00:49.127Z,11.95
2022-10-17T01:03:16.736Z,11.48
2022-10-17T01:05:44.347Z,18.08
2022-10-17T01:08:15.347Z,10.38
2022-10-17T01:19:26.479Z,14.73
2022-10-17T01:22:51.991Z,17.85
2022-10-17T01:25:52.450Z,26.58
2022-10-17T01:38:23.400Z,30.35
2022-10-17T01:41:07.988Z,24.45
2022-10-17T01:43:57.685Z,28.45
2022-10-17T01:46:37.918Z,28.98
2022-10-17T01:49:09.902Z,28.75
2022-10-17T01:51:46.589Z,27.35
2022-10-17T01:54:25.126Z,30.52
2022-10-17T02:00:22.559Z,32.30
2022-10-17T02:03:04.092Z,34.53
2022-10-17T02:05:42.109Z,40.97
2022-10-17T02:08:10.781Z,35.28
2022-10-17T02:10:51.059Z,38.67
2022-10-17T02:17:55.813Z,37.40
2022-10-17T02:20:49.829Z,38.55
2022-10-17T02:23:45.020Z,38.15
2022-10-17T02:26:40.645Z,35.85
2022-10-17T02:29:16.860Z,39.78
2022-10-17T02:32:24.867Z,38.25
2022-10-17T02:34:58.320Z,37.35
2022-10-17T02:37:31.457Z,35.55
2022-10-17T02:40:01.891Z,39.60
2022-10-17T02:42:31.233Z,41.20
2022-10-17T02:45:02.513Z,40.88
2022-10-17T02:47:37.899Z,34.10
2022-10-17T02:50:06.399Z,43.20
2022-10-17T02:53:35.236Z,35.53
2022-10-17T02:56:13.802Z,39.67
2022-10-17T02:58:46.267Z,46.47
2022-10-17T03:03:41.262Z,40.53
2022-10-17T03:06:08.588Z,41.13
2022-10-17T03:08:35.867Z,41.10
2022-10-17T03:11:03.569Z,44.55
2022-10-17T03:13:31.333Z,39.42
2022-10-17T03:16:00.401Z,38.65
2022-10-17T03:18:27.504Z,40.35
2022-10-17T03:20:59.164Z,32.07
2022-10-17T03:23:27.405Z,36.22
2022-10-17T03:25:55.121Z,40.40
2022-10-17T03:28:22.697Z,43.13
2022-10-17T03:30:49.887Z,44.53
2022-10-17T03:33:16.999Z,47.70
2022-10-17T03:35:44.142Z,45.17
2022-10-17T03:38:11.283Z,47.80
2022-10-17T03:40:38.572Z,55.13
2022-10-17T03:43:06.017Z,53.95
2022-10-17T03:45:33.232Z,54.85
2022-10-17T03:48:00.500Z,57.10
2022-10-17T03:50:27.782Z,57.13
2022-10-17T03:52:56.225Z,56.78
2022-10-17T03:55:24.955Z,51.85
2022-10-17T03:58:29.762Z,49.28
2022-10-17T04:01:12.324Z,60.72
2022-10-17T04:03:41.828Z,45.63
2022-10-17T04:06:12.864Z,52.47
2022-10-17T04:08:43.251Z,57.20
2022-10-17T04:11:19.194Z,56.33
2022-10-17T04:13:48.420Z,51.28
2022-10-17T04:19:45.673Z,64.68
2022-10-17T04:22:16.625Z,61.15
2022-10-17T04:24:47.291Z,66.00
2022-10-17T04:27:25.767Z,60.60
2022-10-17T04:29:53.620Z,58.28
2022-10-17T04:32:38.438Z,63.53
2022-10-17T04:35:14.935Z,60.38
2022-10-17T04:38:12.353Z,62.67
2022-10-17T04:40:42.495Z,65.63
2022-10-17T04:44:01.878Z,64.60
2022-10-17T04:46:35.209Z,65.68
2022-10-17T04:49:02.579Z,61.50
2022-10-17T04:51:31.157Z,73.00
2022-10-17T04:58:32.411Z,69.70
2022-10-17T05:00:59.546Z,70.40
2022-10-17T05:03:29.361Z,71.07
2022-10-17T05:05:56.465Z,76.78
2022-10-17T05:08:23.995Z,70.03
2022-10-17T05:10:51.296Z,72.53
2022-10-17T05:13:19.225Z,70.05
2022-10-17T05:15:46.611Z,86.55
2022-10-17T05:29:09.067Z,81.13
2022-10-17T05:31:40.769Z,77.93
2022-10-17T05:34:11.539Z,78.28
2022-10-17T05:36:41.881Z,71.95
2022-10-17T05:39:11.423Z,75.10
2022-10-17T05:41:38.519Z,73.30
2022-10-17T05:44:06.028Z,82.45
2022-10-17T05:46:42.368Z,79.78
2022-10-17T05:49:19.658Z,73.18
2022-10-17T05:51:59.527Z,70.65
2022-10-17T05:54:27.531Z,72.35
2022-10-17T05:56:58.325Z,74.35
2022-10-17T05:59:29.627Z,76.60
2022-10-17T06:02:02.476Z,73.50
2022-10-17T06:04:30.572Z,71.20
2022-10-17T06:06:57.794Z,74.80
2022-10-17T06:09:25.458Z,80.50
2022-10-17T06:12:27.399Z,75.45
2022-10-17T06:19:07.617Z,76.47
2022-10-17T06:21:37.772Z,75.18
2022-10-17T06:24:10.294Z,79.95
2022-10-17T06:26:44.252Z,76.25
2022-10-17T06:29:13.712Z,72.70
2022-10-17T06:31:47.417Z,69.28
2022-10-17T06:34:15.080Z,72.22
2022-10-17T06:36:42.495Z,73.63
2022-10-17T06:39:11.693Z,72.90
2022-10-17T06:41:55.998Z,65.00
2022-10-17T06:44:37.249Z,66.63
2022-10-17T06:47:24.624Z,61.58
2022-10-17T06:49:55.162Z,64.97
2022-10-17T06:52:31.449Z,55.97
2022-10-17T06:55:22.600Z,69.68
2022-10-17T06:58:18.671Z,58.88
2022-10-17T07:01:12.626Z,62.42
2022-10-17T07:03:41.328Z,59.65
2022-10-17T07:06:10.866Z,66.13
2022-10-17T07:08:44.091Z,58.10
2022-10-17T07:11:14.630Z,58.72
2022-10-17T07:13:43.006Z,58.22
2022-10-17T07:16:12.002Z,60.13
2022-10-17T07:18:41.699Z,56.28
2022-10-17T07:21:10.052Z,58.80
2022-10-17T07:23:39.931Z,59.05
2022-10-17T07:26:14.248Z,59.30
2022-10-17T07:28:46.060Z,52.70
2022-10-17T07:31:31.717Z,53.85
2022-10-17T07:34:00.675Z,56.88
2022-10-17T07:36:28.928Z,53.55
2022-10-17T07:38:57.311Z,52.92
2022-10-17T07:41:26.156Z,54.05
2022-10-17T07:43:53.740Z,50.70
2022-10-17T07:46:25.873Z,48.10
2022-10-17T07:48:53.121Z,47.33
2022-10-17T07:51:22.095Z,42.38
2022-10-17T07:53:49.490Z,46.63
2022-10-17T07:56:17.112Z,52.63
2022-10-17T07:58:44.561Z,46.92
2022-10-17T08:01:15.515Z,45.50
2022-10-17T08:03:50.684Z,42.50
2022-10-17T08:06:18.499Z,47.55
2022-10-17T08:08:46.880Z,39.80
2022-10-17T08:11:18.022Z,42.33
2022-10-17T08:13:45.615Z,43.63
2022-10-17T08:16:19.518Z,46.05
2022-10-17T08:18:46.639Z,41.05
2022-10-17T08:21:16.044Z,42.80
2022-10-17T08:23:50.157Z,41.25
2022-10-17T08:26:20.030Z,42.55
2022-10-17T08:29:20.347Z,39.65
2022-10-17T08:31:48.405Z,38.13
2022-10-17T08:34:17.198Z,38.53
2022-10-17T08:53:41.472Z,40.08
2022-10-17T08:56:47.596Z,38.38
2022-10-17T08:59:20.137Z,34.28
2022-10-17T09:03:10.326Z,38.38
2022-10-17T09:19:12.582Z,35.58
2022-10-17T09:22:02.474Z,32.83
2022-10-17T09:24:58.407Z,33.80
2022-10-17T09:27:35.975Z,39.42
2022-10-17T09:30:44.282Z,38.75
2022-10-17T09:33:34.606Z,40.58
2022-10-17T09:36:15.987Z,37.05
2022-10-17T09:38:49.126Z,41.55
2022-10-17T09:44:24.997Z,39.78
2022-10-17T09:47:31.374Z,38.28
2022-10-17T09:49:58.704Z,41.83
2022-10-17T09:52:40.259Z,41.88
2022-10-17T09:55:34.021Z,47.07
2022-10-17T09:58:06.313Z,38.08
2022-10-17T10:03:25.849Z,41.28
2022-10-17T10:06:06.803Z,36.53
2022-10-17T10:08:54.230Z,40.95
2022-10-17T10:11:57.219Z,41.13
2022-10-17T10:14:45.122Z,36.00
2022-10-17T10:17:44.315Z,37.97
2022-10-17T10:20:34.913Z,31.45
2022-10-17T10:23:18.250Z,32.75
2022-10-17T10:26:06.086Z,28.75
2022-10-17T10:28:37.603Z,32.58
2022-10-17T10:31:10.065Z,26.85
2022-10-17T10:36:12.979Z,28.98
2022-10-17T10:39:01.205Z,30.85
2022-10-17T10:41:48.046Z,27.87
2022-10-17T10:44:31.805Z,26.77
2022-10-17T10:47:26.352Z,29.40
2022-10-17T10:50:45.325Z,27.67
2022-10-17T10:53:48.467Z,26.33
2022-10-17T10:56:28.644Z,20.98
2022-10-17T10:59:09.362Z,23.23
2022-10-17T11:13:21.195Z,20.95
2022-10-17T11:16:27.839Z,24.00
2022-10-17T11:19:19.146Z,20.42
2022-10-17T11:22:12.637Z,22.17
2022-10-17T11:24:57.221Z,21.55
2022-10-17T11:27:28.390Z,21.45
2022-10-17T11:29:57.165Z,20.77
2022-10-17T11:32:34.809Z,20.13
2022-10-17T11:35:20.633Z,20.63
2022-10-17T11:38:16.712Z,22.08
2022-10-17T11:40:50.667Z,17.63
2022-10-17T11:43:48.581Z,21.98
2022-10-17T11:46:23.864Z,21.15
2022-10-17T11:49:11.286Z,19.95
2022-10-17T11:52:01.677Z,19.05
2022-10-17T11:54:39.327Z,20.80
2022-10-17T11:57:37.444Z,20.30
2022-10-17T12:00:40.784Z,17.35
2022-10-17T12:04:00.517Z,21.45
2022-10-17T12:07:07.193Z,20.90
2022-10-17T12:10:01.716Z,19.75
2022-10-17T12:12:34.810Z,19.85
2022-10-17T12:29:43.035Z,18.90
2022-10-17T12:32:13.969Z,15.43
2022-10-17T12:34:58.479Z,18.27
2022-10-17T12:40:37.639Z,15.95
2022-10-17T12:43:15.024Z,19.67
2022-10-17T12:46:09.205Z,15.35
2022-10-17T12:48:36.625Z,19.50
2022-10-17T12:51:52.274Z,18.23
2022-10-17T12:54:19.647Z,19.08
2022-10-17T12:56:58.580Z,17.63
2022-10-17T12:59:31.170Z,15.88
2022-10-17T13:02:03.686Z,20.55
2022-10-17T13:04:32.132Z,15.73
2022-10-17T13:07:05.188Z,19.80
2022-10-17T13:09:35.615Z,20.10
2022-10-17T13:12:14.679Z,19.55
2022-10-17T13:14:46.139Z,16.33
2022-10-17T13:17:28.280Z,17.73
2022-10-17T13:19:56.776Z,14.20
2022-10-17T13:22:33.476Z,14.02
2022-10-17T13:28:13.756Z,14.93
2022-10-17T13:30:49.284Z,15.30
2022-10-17T13:33:39.076Z,20.33
2022-10-17T13:36:19.884Z,18.13
2022-10-17T13:38:47.496Z,16.65
2022-10-17T13:41:35.366Z,17.33
2022-10-17T13:44:14.781Z,20.42
2022-10-17T13:46:54.571Z,17.02
2022-10-17T13:53:29.575Z,20.88
2022-10-17T13:56:30.097Z,19.75
2022-10-17T13:59:08.494Z,20.88
2022-10-17T14:01:38.426Z,19.25
2022-10-17T14:04:13.702Z,21.65
2022-10-17T14:06:49.804Z,18.65
2022-10-17T14:09:27.342Z,19.67
2022-10-17T14:12:13.239Z,27.58
2022-10-17T14:15:15.343Z,20.95
2022-10-17T14:17:45.713Z,21.92
2022-10-17T14:23:31.356Z,23.42
2022-10-17T14:26:06.318Z,22.77
2022-10-17T14:28:34.788Z,23.70
2022-10-17T14:31:20.335Z,22.90
2022-10-17T14:33:53.811Z,23.75
2022-10-17T14:36:32.252Z,25.85
2022-10-17T14:39:00.760Z,26.08
2022-10-17T14:41:42.842Z,26.10
2022-10-17T14:44:33.869Z,27.80
2022-10-17T14:47:38.053Z,24.38
2022-10-17T14:50:25.814Z,28.77
2022-10-17T14:53:26.657Z,26.45
2022-10-17T14:56:05.973Z,26.45
2022-10-17T14:58:34.652Z,26.52
2022-10-17T15:01:05.088Z,26.15
2022-10-17T15:03:32.471Z,25.77
2022-10-17T15:06:23.972Z,27.42
2022-10-17T15:08:51.430Z,28.45
2022-10-17T15:11:21.160Z,27.33
2022-10-17T15:14:07.596Z,24.98
2022-10-17T15:16:53.519Z,29.40
2022-10-17T15:19:22.391Z,29.77
2022-10-17T15:22:05.758Z,28.75
2022-10-17T15:24:49.616Z,31.10
2022-10-17T15:27:23.035Z,33.72
2022-10-17T15:29:59.532Z,34.60
2022-10-17T15:32:44.761Z,33.35
2022-10-17T15:35:17.703Z,33.13
2022-10-17T15:37:51.219Z,32.53
2022-10-17T15:40:25.365Z,33.42
2022-10-17T15:43:03.350Z,36.63
2022-10-17T15:45:42.263Z,34.85
2022-10-17T15:48:32.517Z,32.53
2022-10-17T15:51:02.763Z,36.80
2022-10-17T15:53:46.753Z,35.00
2022-10-17T15:57:01.085Z,42.08
2022-10-17T15:59:44.636Z,38.35
2022-10-17T16:02:21.843Z,40.65
2022-10-17T16:07:43.550Z,34.63
2022-10-17T16:10:28.090Z,41.15
2022-10-17T16:16:02.848Z,37.90
2022-10-17T16:18:32.933Z,35.05
2022-10-17T16:21:51.252Z,42.53
2022-10-17T16:24:27.906Z,37.40
2022-10-17T16:27:04.143Z,40.33
2022-10-17T16:30:18.238Z,43.42
2022-10-17T16:42:38.659Z,37.95
2022-10-17T16:45:07.187Z,39.75
2022-10-17T16:47:34.862Z,41.80
2022-10-17T16:50:02.865Z,37.33
2022-10-17T16:52:44.470Z,42.95
2022-10-17T16:58:04.861Z,47.38
2022-10-17T17:00:32.270Z,40.92
2022-10-17T17:03:00.759Z,39.15
2022-10-17T17:06:03.436Z,40.83
2022-10-17T17:09:00.292Z,44.58
2022-10-17T17:11:51.162Z,42.90
2022-10-17T17:14:21.957Z,40.72
2022-10-17T17:16:51.925Z,44.70
2022-10-17T17:19:33.406Z,54.47
2022-10-17T17:22:42.443Z,46.30
2022-10-17T17:25:04.022Z,43.53
2022-10-17T17:28:14.522Z,44.25
2022-10-17T17:33:42.847Z,38.00
2022-10-17T17:36:32.271Z,47.70
2022-10-17T17:39:05.092Z,43.40
2022-10-17T17:41:36.013Z,46.53
2022-10-17T17:44:12.565Z,42.63
2022-10-17T18:03:21.754Z,48.65
2022-10-17T18:05:54.687Z,57.60
2022-10-17T18:08:33.915Z,48.50
2022-10-17T18:11:11.154Z,50.25
2022-10-17T18:13:38.658Z,52.63
2022-10-17T18:16:13.511Z,49.58
2022-10-17T18:18:45.494Z,49.72
2022-10-17T18:21:15.565Z,49.50
2022-10-17T18:41:11.369Z,54.70
2022-10-17T18:43:53.792Z,59.85
2022-10-17T18:46:36.403Z,51.92
2022-10-17T18:49:33.801Z,56.22
2022-10-17T18:52:32.096Z,53.22
2022-10-17T19:01:48.719Z,56.90
2022-10-17T19:10:25.980Z,55.83
2022-10-17T19:25:24.977Z,54.28
2022-10-17T19:27:52.350Z,59.92
2022-10-17T19:30:19.587Z,55.22
2022-10-17T19:32:48.413Z,57.65
2022-10-17T19:35:15.875Z,56.53
2022-10-17T19:37:43.170Z,56.45
2022-10-17T19:40:27.498Z,58.17
2022-10-17T19:42:55.230Z,56.42
2022-10-17T19:45:23.559Z,54.92
2022-10-17T19:47:50.919Z,62.35
2022-10-17T19:50:18.439Z,53.17
2022-10-17T19:52:45.744Z,60.80
2022-10-17T19:55:13.127Z,57.75
2022-10-17T19:57:40.471Z,54.95
2022-10-17T20:00:14.993Z,59.80
2022-10-17T20:02:43.845Z,54.13
2022-10-17T20:05:18.689Z,54.08
2022-10-17T20:07:47.195Z,57.20
2022-10-17T20:10:14.586Z,63.58
2022-10-17T20:12:42.503Z,56.33
2022-10-17T20:15:13.089Z,50.58
2022-10-17T20:17:40.543Z,54.15
2022-10-17T20:20:09.103Z,62.67
2022-10-17T20:22:42.841Z,54.45
2022-10-17T20:25:18.796Z,55.83
2022-10-17T20:27:48.513Z,52.10
2022-10-17T20:30:36.997Z,58.33
2022-10-17T20:33:07.222Z,61.03
2022-10-17T20:35:55.819Z,54.78
2022-10-17T20:38:38.568Z,51.22
2022-10-17T20:41:20.575Z,53.38
2022-10-17T20:55:12.907Z,64.00
2022-10-17T20:59:42.170Z,56.92
2022-10-17T21:55:38.218Z,58.05
2022-10-17T21:58:09.295Z,64.03
2022-10-17T22:00:48.308Z,61.25
2022-10-17T22:03:33.550Z,59.35
2022-10-17T22:09:28.774Z,71.30
2022-10-17T22:11:57.948Z,64.05
2022-10-17T22:14:27.576Z,61.28
2022-10-17T22:16:55.951Z,69.35
2022-10-17T22:22:19.449Z,65.95
2022-10-17T22:24:47.390Z,71.03
2022-10-17T22:27:15.432Z,68.45
2022-10-17T22:29:43.753Z,71.78
2022-10-17T22:52:13.964Z,70.03
2022-10-17T22:54:42.066Z,68.75
2022-10-17T22:57:31.869Z,69.20
2022-10-17T23:00:01.287Z,75.72
2022-10-17T23:02:29.165Z,70.47
2022-10-17T23:04:58.870Z,64.95
2022-10-17T23:07:27.202Z,78.47
2022-10-17T23:09:55.567Z,73.40
2022-10-17T23:12:23.882Z,79.60
2022-10-17T23:14:51.728Z,73.13
2022-10-17T23:17:31.946Z,76.43
2022-10-17T23:20:00.941Z,72.97
2022-10-17T23:22:31.864Z,70.18
2022-10-17T23:25:04.076Z,70.82
2022-10-17T23:27:31.985Z,69.70
2022-10-17T23:29:59.651Z,67.75
2022-10-17T23:32:27.695Z,71.40
2022-10-17T23:34:55.667Z,69.78
2022-10-17T23:37:23.289Z,75.75
2022-10-17T23:39:51.167Z,68.00
2022-10-17T23:42:18.631Z,69.85
2022-10-17T23:44:46.289Z,75.82
2022-10-17T23:47:13.987Z,75.75
2022-10-17T23:49:41.338Z,66.53
2022-10-17T23:52:09.068Z,77.90
2022-10-17T23:54:36.874Z,68.60
2022-10-17T23:57:04.771Z,73.10
2022-10-17T23:59:32.297Z,72.88
